sensor_id;sensor_type;location;lat;lon;timestamp;P1;durP1;ratioP1;P2;durP2;ratioP2
50104;SDS011;47690;39.202;-77.198;2023-11-19T00:01:29;2.33;;;1.85;;
50104;SDS011;47690;39.202;-77.198;2023-11-19T00:03:58;2.13;;;1.75;;
50104;SDS011;47690;39.202;-77.198;2023-11-19T00:06:27;1.77;;;1.60;;
50104;SDS011;47690;39.202;-77.198;2023-11-19T00:08:57;1.40;;;1.30;;
50104;SDS011;47690;39.202;-77.198;2023-11-19T00:11:26;2.90;;;1.65;;
50104;SDS011;47690;39.202;-77.198;2023-11-19T00:13:55;1.70;;;1.58;;
50104;SDS011;47690;39.202;-77.198;2023-11-19T00:16:24;2.33;;;1.85;;
50104;SDS011;47690;39.202;-77.198;2023-11-19T00:18:53;1.90;;;1.75;;
50104;SDS011;47690;39.202;-77.198;2023-11-19T00:21:22;1.75;;;1.65;;
50104;SDS011;47690;39.202;-77.198;2023-11-19T00:23:53;1.60;;;1.50;;
50104;SDS011;47690;39.202;-77.198;2023-11-19T00:26:22;1.70;;;1.50;;
50104;SDS011;47690;39.202;-77.198;2023-11-19T00:28:52;1.70;;;1.60;;
50104;SDS011;47690;39.202;-77.198;2023-11-19T00:31:21;1.88;;;1.58;;
50104;SDS011;47690;39.202;-77.198;2023-11-19T00:33:49;1.65;;;1.55;;
50104;SDS011;47690;39.202;-77.198;2023-11-19T00:36:19;1.70;;;1.60;;
50104;SDS011;47690;39.202;-77.198;2023-11-19T00:38:51;1.58;;;1.48;;
50104;SDS011;47690;39.202;-77.198;2023-11-19T00:43:55;1.45;;;1.35;;
50104;SDS011;47690;39.202;-77.198;2023-11-19T00:46:28;1.48;;;1.38;;
50104;SDS011;47690;39.202;-77.198;2023-11-19T00:49:07;1.63;;;1.52;;
50104;SDS011;47690;39.202;-77.198;2023-11-19T00:51:36;2.58;;;1.60;;
50104;SDS011;47690;39.202;-77.198;2023-11-19T00:54:11;1.60;;;1.50;;
50104;SDS011;47690;39.202;-77.198;2023-11-19T00:56:40;1.80;;;1.70;;
50104;SDS011;47690;39.202;-77.198;2023-11-19T00:59:10;3.63;;;1.85;;
50104;SDS011;47690;39.202;-77.198;2023-11-19T01:01:39;1.60;;;1.50;;
50104;SDS011;47690;39.202;-77.198;2023-11-19T01:04:08;1.83;;;1.73;;
50104;SDS011;47690;39.202;-77.198;2023-11-19T01:06:37;1.67;;;1.58;;
50104;SDS011;47690;39.202;-77.198;2023-11-19T01:09:16;2.55;;;1.60;;
50104;SDS011;47690;39.202;-77.198;2023-11-19T01:11:46;2.00;;;1.80;;
50104;SDS011;47690;39.202;-77.198;2023-11-19T01:14:16;1.65;;;1.55;;
50104;SDS011;47690;39.202;-77.198;2023-11-19T01:16:45;1.95;;;1.60;;
50104;SDS011;47690;39.202;-77.198;2023-11-19T01:19:16;1.60;;;1.50;;
50104;SDS011;47690;39.202;-77.198;2023-11-19T01:21:45;1.67;;;1.58;;
50104;SDS011;47690;39.202;-77.198;2023-11-19T01:24:15;1.63;;;1.50;;
50104;SDS011;47690;39.202;-77.198;2023-11-19T01:26:44;1.70;;;1.60;;
50104;SDS011;47690;39.202;-77.198;2023-11-19T01:29:13;1.70;;;1.58;;
50104;SDS011;47690;39.202;-77.198;2023-11-19T01:31:43;2.30;;;1.65;;
50104;SDS011;47690;39.202;-77.198;2023-11-19T01:34:15;1.75;;;1.58;;
50104;SDS011;47690;39.202;-77.198;2023-11-19T01:36:48;2.08;;;1.70;;
50104;SDS011;47690;39.202;-77.198;2023-11-19T01:39:18;2.25;;;1.65;;
50104;SDS011;47690;39.202;-77.198;2023-11-19T01:41:48;2.05;;;1.85;;
50104;SDS011;47690;39.202;-77.198;2023-11-19T01:44:17;2.67;;;1.70;;
50104;SDS011;47690;39.202;-77.198;2023-11-19T01:46:47;1.60;;;1.50;;
50104;SDS011;47690;39.202;-77.198;2023-11-19T01:49:17;3.08;;;1.80;;
50104;SDS011;47690;39.202;-77.198;2023-11-19T01:51:47;1.73;;;1.63;;
50104;SDS011;47690;39.202;-77.198;2023-11-19T01:54:28;1.55;;;1.40;;
50104;SDS011;47690;39.202;-77.198;2023-11-19T01:56:57;1.88;;;1.52;;
50104;SDS011;47690;39.202;-77.198;2023-11-19T01:59:26;1.83;;;1.60;;
50104;SDS011;47690;39.202;-77.198;2023-11-19T02:01:55;1.75;;;1.65;;
50104;SDS011;47690;39.202;-77.198;2023-11-19T02:04:28;1.73;;;1.63;;
50104;SDS011;47690;39.202;-77.198;2023-11-19T02:06:58;1.65;;;1.55;;
50104;SDS011;47690;39.202;-77.198;2023-11-19T02:09:36;1.65;;;1.55;;
50104;SDS011;47690;39.202;-77.198;2023-11-19T02:12:06;1.75;;;1.60;;
50104;SDS011;47690;39.202;-77.198;2023-11-19T02:14:36;1.65;;;1.55;;
50104;SDS011;47690;39.202;-77.198;2023-11-19T02:17:05;1.80;;;1.65;;
50104;SDS011;47690;39.202;-77.198;2023-11-19T02:19:41;2.15;;;1.60;;
50104;SDS011;47690;39.202;-77.198;2023-11-19T02:22:10;1.80;;;1.60;;
50104;SDS011;47690;39.202;-77.198;2023-11-19T02:24:39;1.85;;;1.73;;
50104;SDS011;47690;39.202;-77.198;2023-11-19T02:27:10;1.40;;;1.30;;
50104;SDS011;47690;39.202;-77.198;2023-11-19T02:32:38;1.83;;;1.60;;
50104;SDS011;47690;39.202;-77.198;2023-11-19T02:35:09;2.33;;;1.50;;
50104;SDS011;47690;39.202;-77.198;2023-11-19T02:37:38;1.60;;;1.50;;
50104;SDS011;47690;39.202;-77.198;2023-11-19T02:40:08;1.52;;;1.42;;
50104;SDS011;47690;39.202;-77.198;2023-11-19T02:42:40;2.05;;;1.85;;
50104;SDS011;47690;39.202;-77.198;2023-11-19T02:45:10;1.60;;;1.50;;
50104;SDS011;47690;39.202;-77.198;2023-11-19T02:52:34;1.88;;;1.50;;
50104;SDS011;47690;39.202;-77.198;2023-11-19T02:55:07;1.55;;;1.45;;
50104;SDS011;47690;39.202;-77.198;2023-11-19T02:57:42;1.73;;;1.63;;
50104;SDS011;47690;39.202;-77.198;2023-11-19T03:00:20;2.10;;;1.83;;
50104;SDS011;47690;39.202;-77.198;2023-11-19T03:08:54;1.80;;;1.70;;
50104;SDS011;47690;39.202;-77.198;2023-11-19T03:11:26;1.60;;;1.50;;
50104;SDS011;47690;39.202;-77.198;2023-11-19T03:13:55;2.10;;;1.70;;
50104;SDS011;47690;39.202;-77.198;2023-11-19T03:16:25;2.03;;;1.80;;
50104;SDS011;47690;39.202;-77.198;2023-11-19T03:18:55;2.08;;;1.77;;
50104;SDS011;47690;39.202;-77.198;2023-11-19T03:21:31;2.25;;;1.73;;
50104;SDS011;47690;39.202;-77.198;2023-11-19T03:24:04;1.85;;;1.65;;
50104;SDS011;47690;39.202;-77.198;2023-11-19T03:26:35;2.20;;;1.83;;
50104;SDS011;47690;39.202;-77.198;2023-11-19T03:29:05;2.28;;;1.70;;
50104;SDS011;47690;39.202;-77.198;2023-11-19T03:31:41;2.13;;;1.58;;
50104;SDS011;47690;39.202;-77.198;2023-11-19T03:34:11;2.03;;;1.85;;
50104;SDS011;47690;39.202;-77.198;2023-11-19T03:36:41;1.75;;;1.65;;
50104;SDS011;47690;39.202;-77.198;2023-11-19T03:39:11;5.30;;;1.80;;
50104;SDS011;47690;39.202;-77.198;2023-11-19T03:41:41;2.53;;;1.80;;
50104;SDS011;47690;39.202;-77.198;2023-11-19T03:44:15;1.88;;;1.42;;
50104;SDS011;47690;39.202;-77.198;2023-11-19T03:46:45;1.63;;;1.52;;
50104;SDS011;47690;39.202;-77.198;2023-11-19T03:49:17;1.80;;;1.70;;
50104;SDS011;47690;39.202;-77.198;2023-11-19T03:51:46;1.50;;;1.40;;
50104;SDS011;47690;39.202;-77.198;2023-11-19T03:54:19;1.75;;;1.65;;
50104;SDS011;47690;39.202;-77.198;2023-11-19T03:56:50;1.95;;;1.70;;
50104;SDS011;47690;39.202;-77.198;2023-11-19T03:59:20;1.77;;;1.67;;
50104;SDS011;47690;39.202;-77.198;2023-11-19T04:01:49;2.00;;;1.80;;
50104;SDS011;47690;39.202;-77.198;2023-11-19T04:04:22;1.77;;;1.67;;
50104;SDS011;47690;39.202;-77.198;2023-11-19T04:06:51;2.17;;;1.83;;
50104;SDS011;47690;39.202;-77.198;2023-11-19T04:09:20;2.35;;;1.90;;
50104;SDS011;47690;39.202;-77.198;2023-11-19T04:11:50;2.20;;;2.00;;
50104;SDS011;47690;39.202;-77.198;2023-11-19T04:14:20;3.90;;;1.98;;
50104;SDS011;47690;39.202;-77.198;2023-11-19T04:16:50;1.83;;;1.67;;
50104;SDS011;47690;39.202;-77.198;2023-11-19T04:19:22;1.95;;;1.75;;
50104;SDS011;47690;39.202;-77.198;2023-11-19T04:21:52;2.60;;;1.90;;
50104;SDS011;47690;39.202;-77.198;2023-11-19T04:24:22;2.47;;;1.80;;
50104;SDS011;47690;39.202;-77.198;2023-11-19T04:26:56;4.15;;;2.08;;
50104;SDS011;47690;39.202;-77.198;2023-11-19T04:29:25;2.58;;;2.10;;
50104;SDS011;47690;39.202;-77.198;2023-11-19T04:31:56;2.42;;;2.22;;
50104;SDS011;47690;39.202;-77.198;2023-11-19T04:34:26;3.22;;;2.30;;
50104;SDS011;47690;39.202;-77.198;2023-11-19T04:36:56;3.50;;;2.63;;
50104;SDS011;47690;39.202;-77.198;2023-11-19T04:39:25;4.70;;;2.53;;
50104;SDS011;47690;39.202;-77.198;2023-11-19T04:41:55;3.58;;;2.45;;
50104;SDS011;47690;39.202;-77.198;2023-11-19T04:44:25;5.18;;;3.28;;
50104;SDS011;47690;39.202;-77.198;2023-11-19T04:46:56;3.45;;;2.58;;
50104;SDS011;47690;39.202;-77.198;2023-11-19T04:49:25;4.30;;;2.58;;
50104;SDS011;47690;39.202;-77.198;2023-11-19T04:51:57;5.68;;;3.35;;
50104;SDS011;47690;39.202;-77.198;2023-11-19T04:54:26;4.97;;;3.80;;
50104;SDS011;47690;39.202;-77.198;2023-11-19T04:56:56;3.67;;;2.78;;
50104;SDS011;47690;39.202;-77.198;2023-11-19T04:59:26;3.97;;;2.70;;
50104;SDS011;47690;39.202;-77.198;2023-11-19T05:01:55;3.55;;;2.67;;
50104;SDS011;47690;39.202;-77.198;2023-11-19T05:04:26;2.70;;;2.40;;
50104;SDS011;47690;39.202;-77.198;2023-11-19T05:06:55;2.80;;;2.40;;
50104;SDS011;47690;39.202;-77.198;2023-11-19T05:09:25;2.92;;;2.20;;
50104;SDS011;47690;39.202;-77.198;2023-11-19T05:11:54;2.33;;;2.10;;
50104;SDS011;47690;39.202;-77.198;2023-11-19T05:14:25;2.80;;;2.20;;
50104;SDS011;47690;39.202;-77.198;2023-11-19T05:16:54;3.03;;;1.90;;
50104;SDS011;47690;39.202;-77.198;2023-11-19T05:19:24;1.90;;;1.60;;
50104;SDS011;47690;39.202;-77.198;2023-11-19T05:21:54;2.40;;;1.90;;
50104;SDS011;47690;39.202;-77.198;2023-11-19T05:24:23;2.53;;;1.80;;
50104;SDS011;47690;39.202;-77.198;2023-11-19T05:26:54;2.42;;;1.75;;
50104;SDS011;47690;39.202;-77.198;2023-11-19T05:29:23;2.50;;;1.95;;
50104;SDS011;47690;39.202;-77.198;2023-11-19T05:31:52;1.80;;;1.67;;
50104;SDS011;47690;39.202;-77.198;2023-11-19T05:34:25;2.03;;;1.85;;
50104;SDS011;47690;39.202;-77.198;2023-11-19T05:36:54;2.88;;;2.10;;
50104;SDS011;47690;39.202;-77.198;2023-11-19T05:39:23;2.13;;;1.80;;
50104;SDS011;47690;39.202;-77.198;2023-11-19T05:41:53;2.30;;;2.00;;
50104;SDS011;47690;39.202;-77.198;2023-11-19T05:44:22;2.28;;;1.88;;
50104;SDS011;47690;39.202;-77.198;2023-11-19T05:46:51;2.75;;;1.80;;
50104;SDS011;47690;39.202;-77.198;2023-11-19T05:49:29;1.95;;;1.70;;
50104;SDS011;47690;39.202;-77.198;2023-11-19T05:51:58;2.35;;;2.08;;
50104;SDS011;47690;39.202;-77.198;2023-11-19T05:54:27;2.10;;;1.90;;
50104;SDS011;47690;39.202;-77.198;2023-11-19T05:56:58;1.80;;;1.70;;
50104;SDS011;47690;39.202;-77.198;2023-11-19T05:59:27;2.08;;;1.88;;
50104;SDS011;47690;39.202;-77.198;2023-11-19T06:01:57;3.17;;;2.10;;
50104;SDS011;47690;39.202;-77.198;2023-11-19T06:04:31;2.88;;;1.90;;
50104;SDS011;47690;39.202;-77.198;2023-11-19T06:07:06;2.45;;;2.00;;
50104;SDS011;47690;39.202;-77.198;2023-11-19T06:09:35;2.05;;;1.88;;
50104;SDS011;47690;39.202;-77.198;2023-11-19T06:12:04;1.90;;;1.80;;
50104;SDS011;47690;39.202;-77.198;2023-11-19T06:14:35;2.63;;;2.10;;
50104;SDS011;47690;39.202;-77.198;2023-11-19T06:17:05;2.28;;;1.92;;
50104;SDS011;47690;39.202;-77.198;2023-11-19T06:19:34;2.70;;;1.70;;
50104;SDS011;47690;39.202;-77.198;2023-11-19T06:22:03;2.00;;;1.80;;
50104;SDS011;47690;39.202;-77.198;2023-11-19T06:24:33;1.90;;;1.80;;
50104;SDS011;47690;39.202;-77.198;2023-11-19T06:27:05;1.83;;;1.73;;
50104;SDS011;47690;39.202;-77.198;2023-11-19T06:29:34;1.83;;;1.67;;
50104;SDS011;47690;39.202;-77.198;2023-11-19T06:32:05;1.70;;;1.60;;
50104;SDS011;47690;39.202;-77.198;2023-11-19T06:34:42;2.05;;;1.85;;
50104;SDS011;47690;39.202;-77.198;2023-11-19T06:37:12;1.65;;;1.55;;
50104;SDS011;47690;39.202;-77.198;2023-11-19T06:39:42;5.10;;;1.83;;
50104;SDS011;47690;39.202;-77.198;2023-11-19T06:42:11;1.80;;;1.70;;
50104;SDS011;47690;39.202;-77.198;2023-11-19T06:44:40;3.15;;;1.98;;
50104;SDS011;47690;39.202;-77.198;2023-11-19T06:47:10;2.20;;;2.00;;
50104;SDS011;47690;39.202;-77.198;2023-11-19T06:49:40;2.17;;;1.98;;
50104;SDS011;47690;39.202;-77.198;2023-11-19T06:52:08;1.67;;;1.58;;
50104;SDS011;47690;39.202;-77.198;2023-11-19T06:54:38;3.42;;;2.38;;
50104;SDS011;47690;39.202;-77.198;2023-11-19T06:57:08;1.80;;;1.70;;
50104;SDS011;47690;39.202;-77.198;2023-11-19T06:59:39;3.47;;;1.90;;
50104;SDS011;47690;39.202;-77.198;2023-11-19T07:02:09;2.50;;;2.05;;
50104;SDS011;47690;39.202;-77.198;2023-11-19T07:04:40;2.10;;;1.90;;
50104;SDS011;47690;39.202;-77.198;2023-11-19T07:07:10;1.80;;;1.70;;
50104;SDS011;47690;39.202;-77.198;2023-11-19T07:09:43;7.03;;;2.08;;
50104;SDS011;47690;39.202;-77.198;2023-11-19T07:12:13;1.80;;;1.65;;
50104;SDS011;47690;39.202;-77.198;2023-11-19T07:14:42;1.88;;;1.77;;
50104;SDS011;47690;39.202;-77.198;2023-11-19T07:17:11;2.10;;;1.90;;
50104;SDS011;47690;39.202;-77.198;2023-11-19T07:19:40;1.90;;;1.65;;
50104;SDS011;47690;39.202;-77.198;2023-11-19T07:22:09;1.90;;;1.70;;
50104;SDS011;47690;39.202;-77.198;2023-11-19T07:24:39;1.80;;;1.70;;
50104;SDS011;47690;39.202;-77.198;2023-11-19T07:27:11;2.10;;;1.80;;
50104;SDS011;47690;39.202;-77.198;2023-11-19T07:29:40;1.92;;;1.80;;
50104;SDS011;47690;39.202;-77.198;2023-11-19T07:32:11;1.50;;;1.40;;
50104;SDS011;47690;39.202;-77.198;2023-11-19T07:34:42;2.00;;;1.80;;
50104;SDS011;47690;39.202;-77.198;2023-11-19T07:37:11;1.80;;;1.70;;
50104;SDS011;47690;39.202;-77.198;2023-11-19T07:39:40;3.10;;;1.98;;
50104;SDS011;47690;39.202;-77.198;2023-11-19T07:42:10;1.65;;;1.55;;
50104;SDS011;47690;39.202;-77.198;2023-11-19T07:44:39;3.22;;;1.70;;
50104;SDS011;47690;39.202;-77.198;2023-11-19T07:47:09;2.15;;;1.95;;
50104;SDS011;47690;39.202;-77.198;2023-11-19T07:49:38;2.28;;;1.98;;
50104;SDS011;47690;39.202;-77.198;2023-11-19T07:52:09;2.03;;;1.75;;
50104;SDS011;47690;39.202;-77.198;2023-11-19T07:54:42;1.92;;;1.55;;
50104;SDS011;47690;39.202;-77.198;2023-11-19T08:00:08;1.77;;;1.67;;
50104;SDS011;47690;39.202;-77.198;2023-11-19T08:02:41;1.75;;;1.65;;
50104;SDS011;47690;39.202;-77.198;2023-11-19T08:05:10;1.73;;;1.63;;
50104;SDS011;47690;39.202;-77.198;2023-11-19T08:07:40;3.58;;;1.90;;
50104;SDS011;47690;39.202;-77.198;2023-11-19T08:10:10;1.70;;;1.60;;
50104;SDS011;47690;39.202;-77.198;2023-11-19T08:12:40;1.83;;;1.73;;
50104;SDS011;47690;39.202;-77.198;2023-11-19T08:15:09;1.90;;;1.80;;
50104;SDS011;47690;39.202;-77.198;2023-11-19T08:17:39;2.58;;;2.00;;
50104;SDS011;47690;39.202;-77.198;2023-11-19T08:20:09;2.33;;;1.70;;
50104;SDS011;47690;39.202;-77.198;2023-11-19T08:22:40;1.80;;;1.70;;
50104;SDS011;47690;39.202;-77.198;2023-11-19T08:25:09;2.22;;;1.90;;
50104;SDS011;47690;39.202;-77.198;2023-11-19T08:27:38;2.10;;;1.90;;
50104;SDS011;47690;39.202;-77.198;2023-11-19T08:30:08;2.00;;;1.80;;
50104;SDS011;47690;39.202;-77.198;2023-11-19T08:32:38;2.10;;;1.70;;
50104;SDS011;47690;39.202;-77.198;2023-11-19T08:35:08;2.35;;;1.70;;
50104;SDS011;47690;39.202;-77.198;2023-11-19T08:37:37;2.60;;;1.70;;
50104;SDS011;47690;39.202;-77.198;2023-11-19T08:40:06;1.90;;;1.70;;
50104;SDS011;47690;39.202;-77.198;2023-11-19T08:42:39;1.77;;;1.67;;
50104;SDS011;47690;39.202;-77.198;2023-11-19T08:45:10;1.77;;;1.67;;
50104;SDS011;47690;39.202;-77.198;2023-11-19T08:47:39;1.75;;;1.65;;
50104;SDS011;47690;39.202;-77.198;2023-11-19T08:50:09;1.98;;;1.77;;
50104;SDS011;47690;39.202;-77.198;2023-11-19T08:52:42;2.28;;;1.70;;
50104;SDS011;47690;39.202;-77.198;2023-11-19T08:55:11;1.70;;;1.60;;
50104;SDS011;47690;39.202;-77.198;2023-11-19T08:57:42;1.90;;;1.70;;
50104;SDS011;47690;39.202;-77.198;2023-11-19T09:00:11;1.90;;;1.73;;
50104;SDS011;47690;39.202;-77.198;2023-11-19T09:02:43;2.08;;;1.88;;
50104;SDS011;47690;39.202;-77.198;2023-11-19T09:05:12;2.13;;;1.80;;
50104;SDS011;47690;39.202;-77.198;2023-11-19T09:07:42;2.15;;;1.80;;
50104;SDS011;47690;39.202;-77.198;2023-11-19T09:10:11;1.92;;;1.73;;
50104;SDS011;47690;39.202;-77.198;2023-11-19T09:12:41;2.00;;;1.75;;
50104;SDS011;47690;39.202;-77.198;2023-11-19T09:15:10;2.20;;;1.80;;
50104;SDS011;47690;39.202;-77.198;2023-11-19T09:17:39;2.35;;;2.00;;
50104;SDS011;47690;39.202;-77.198;2023-11-19T09:20:09;1.95;;;1.80;;
50104;SDS011;47690;39.202;-77.198;2023-11-19T09:22:44;2.08;;;1.88;;
50104;SDS011;47690;39.202;-77.198;2023-11-19T09:25:13;2.15;;;1.95;;
50104;SDS011;47690;39.202;-77.198;2023-11-19T09:27:49;1.90;;;1.80;;
50104;SDS011;47690;39.202;-77.198;2023-11-19T09:30:18;1.77;;;1.67;;
50104;SDS011;47690;39.202;-77.198;2023-11-19T09:32:47;1.95;;;1.80;;
50104;SDS011;47690;39.202;-77.198;2023-11-19T09:35:16;1.92;;;1.77;;
50104;SDS011;47690;39.202;-77.198;2023-11-19T09:37:45;2.63;;;2.20;;
50104;SDS011;47690;39.202;-77.198;2023-11-19T09:40:14;1.90;;;1.77;;
50104;SDS011;47690;39.202;-77.198;2023-11-19T09:42:47;1.88;;;1.77;;
50104;SDS011;47690;39.202;-77.198;2023-11-19T09:45:17;2.13;;;1.80;;
50104;SDS011;47690;39.202;-77.198;2023-11-19T09:47:53;1.80;;;1.70;;
50104;SDS011;47690;39.202;-77.198;2023-11-19T09:50:26;2.03;;;1.80;;
50104;SDS011;47690;39.202;-77.198;2023-11-19T09:52:59;2.65;;;1.90;;
50104;SDS011;47690;39.202;-77.198;2023-11-19T09:55:30;2.33;;;1.90;;
50104;SDS011;47690;39.202;-77.198;2023-11-19T09:58:00;2.10;;;1.90;;
50104;SDS011;47690;39.202;-77.198;2023-11-19T10:00:31;1.92;;;1.75;;
50104;SDS011;47690;39.202;-77.198;2023-11-19T10:03:01;2.20;;;1.90;;
50104;SDS011;47690;39.202;-77.198;2023-11-19T10:05:33;2.30;;;2.00;;
50104;SDS011;47690;39.202;-77.198;2023-11-19T10:08:03;2.15;;;1.80;;
50104;SDS011;47690;39.202;-77.198;2023-11-19T10:10:34;2.22;;;1.60;;
50104;SDS011;47690;39.202;-77.198;2023-11-19T10:13:03;2.10;;;1.80;;
50104;SDS011;47690;39.202;-77.198;2023-11-19T10:15:35;1.88;;;1.70;;
50104;SDS011;47690;39.202;-77.198;2023-11-19T10:18:05;1.92;;;1.80;;
50104;SDS011;47690;39.202;-77.198;2023-11-19T10:20:36;1.77;;;1.67;;
50104;SDS011;47690;39.202;-77.198;2023-11-19T10:23:06;2.00;;;1.80;;
50104;SDS011;47690;39.202;-77.198;2023-11-19T10:25:41;2.00;;;1.77;;
50104;SDS011;47690;39.202;-77.198;2023-11-19T10:28:10;1.75;;;1.65;;
50104;SDS011;47690;39.202;-77.198;2023-11-19T10:30:39;1.90;;;1.80;;
50104;SDS011;47690;39.202;-77.198;2023-11-19T10:33:11;2.20;;;1.90;;
50104;SDS011;47690;39.202;-77.198;2023-11-19T10:35:55;2.10;;;1.90;;
50104;SDS011;47690;39.202;-77.198;2023-11-19T10:38:29;1.98;;;1.75;;
50104;SDS011;47690;39.202;-77.198;2023-11-19T10:40:59;2.25;;;2.05;;
50104;SDS011;47690;39.202;-77.198;2023-11-19T10:43:44;1.90;;;1.70;;
50104;SDS011;47690;39.202;-77.198;2023-11-19T10:46:14;2.35;;;1.80;;
50104;SDS011;47690;39.202;-77.198;2023-11-19T10:48:48;2.30;;;2.10;;
50104;SDS011;47690;39.202;-77.198;2023-11-19T10:51:20;2.10;;;1.90;;
50104;SDS011;47690;39.202;-77.198;2023-11-19T10:53:52;2.10;;;1.70;;
50104;SDS011;47690;39.202;-77.198;2023-11-19T10:56:31;2.05;;;1.80;;
50104;SDS011;47690;39.202;-77.198;2023-11-19T10:59:03;2.25;;;1.63;;
50104;SDS011;47690;39.202;-77.198;2023-11-19T11:01:48;1.98;;;1.77;;
50104;SDS011;47690;39.202;-77.198;2023-11-19T11:04:24;1.90;;;1.80;;
50104;SDS011;47690;39.202;-77.198;2023-11-19T11:06:56;2.05;;;1.77;;
50104;SDS011;47690;39.202;-77.198;2023-11-19T11:09:32;1.77;;;1.67;;
50104;SDS011;47690;39.202;-77.198;2023-11-19T11:12:02;1.88;;;1.77;;
50104;SDS011;47690;39.202;-77.198;2023-11-19T11:14:34;1.98;;;1.80;;
50104;SDS011;47690;39.202;-77.198;2023-11-19T11:17:08;2.00;;;1.80;;
50104;SDS011;47690;39.202;-77.198;2023-11-19T11:19:40;1.88;;;1.70;;
50104;SDS011;47690;39.202;-77.198;2023-11-19T11:22:11;2.20;;;2.03;;
50104;SDS011;47690;39.202;-77.198;2023-11-19T11:27:58;1.60;;;1.50;;
50104;SDS011;47690;39.202;-77.198;2023-11-19T11:36:32;2.00;;;1.80;;
50104;SDS011;47690;39.202;-77.198;2023-11-19T11:39:18;2.50;;;1.90;;
50104;SDS011;47690;39.202;-77.198;2023-11-19T11:45:07;2.10;;;1.70;;
50104;SDS011;47690;39.202;-77.198;2023-11-19T11:50:14;2.20;;;2.00;;
50104;SDS011;47690;39.202;-77.198;2023-11-19T11:58:18;2.53;;;1.80;;
50104;SDS011;47690;39.202;-77.198;2023-11-19T12:00:49;1.70;;;1.60;;
50104;SDS011;47690;39.202;-77.198;2023-11-19T12:03:21;1.85;;;1.75;;
50104;SDS011;47690;39.202;-77.198;2023-11-19T12:05:50;1.77;;;1.67;;
50104;SDS011;47690;39.202;-77.198;2023-11-19T12:08:24;1.70;;;1.60;;
50104;SDS011;47690;39.202;-77.198;2023-11-19T12:10:58;1.70;;;1.60;;
50104;SDS011;47690;39.202;-77.198;2023-11-19T12:16:31;1.70;;;1.60;;
50104;SDS011;47690;39.202;-77.198;2023-11-19T12:19:06;1.70;;;1.60;;
50104;SDS011;47690;39.202;-77.198;2023-11-19T12:21:36;2.00;;;1.80;;
50104;SDS011;47690;39.202;-77.198;2023-11-19T12:24:07;1.60;;;1.50;;
50104;SDS011;47690;39.202;-77.198;2023-11-19T12:26:37;1.65;;;1.55;;
50104;SDS011;47690;39.202;-77.198;2023-11-19T12:29:08;1.80;;;1.60;;
50104;SDS011;47690;39.202;-77.198;2023-11-19T12:31:43;1.80;;;1.70;;
50104;SDS011;47690;39.202;-77.198;2023-11-19T12:34:13;1.48;;;1.42;;
50104;SDS011;47690;39.202;-77.198;2023-11-19T12:36:42;1.70;;;1.60;;
50104;SDS011;47690;39.202;-77.198;2023-11-19T12:39:13;2.13;;;1.83;;
50104;SDS011;47690;39.202;-77.198;2023-11-19T12:41:49;3.00;;;1.70;;
50104;SDS011;47690;39.202;-77.198;2023-11-19T12:44:20;2.15;;;1.95;;
50104;SDS011;47690;39.202;-77.198;2023-11-19T12:47:06;1.70;;;1.60;;
50104;SDS011;47690;39.202;-77.198;2023-11-19T12:49:38;1.80;;;1.70;;
50104;SDS011;47690;39.202;-77.198;2023-11-19T12:52:12;2.30;;;1.75;;
50104;SDS011;47690;39.202;-77.198;2023-11-19T12:54:42;1.77;;;1.67;;
50104;SDS011;47690;39.202;-77.198;2023-11-19T12:57:11;1.70;;;1.60;;
50104;SDS011;47690;39.202;-77.198;2023-11-19T12:59:40;1.60;;;1.50;;
50104;SDS011;47690;39.202;-77.198;2023-11-19T13:02:13;1.90;;;1.70;;
50104;SDS011;47690;39.202;-77.198;2023-11-19T13:04:41;1.80;;;1.67;;
50104;SDS011;47690;39.202;-77.198;2023-11-19T13:07:15;2.35;;;1.90;;
50104;SDS011;47690;39.202;-77.198;2023-11-19T13:09:49;2.13;;;1.92;;
50104;SDS011;47690;39.202;-77.198;2023-11-19T13:12:19;2.00;;;1.80;;
50104;SDS011;47690;39.202;-77.198;2023-11-19T13:14:48;2.10;;;1.90;;
50104;SDS011;47690;39.202;-77.198;2023-11-19T13:17:19;2.65;;;1.90;;
50104;SDS011;47690;39.202;-77.198;2023-11-19T13:19:49;2.10;;;1.90;;
50104;SDS011;47690;39.202;-77.198;2023-11-19T13:22:19;1.95;;;1.75;;
50104;SDS011;47690;39.202;-77.198;2023-11-19T13:24:47;2.33;;;1.90;;
50104;SDS011;47690;39.202;-77.198;2023-11-19T13:27:17;2.15;;;1.95;;
50104;SDS011;47690;39.202;-77.198;2023-11-19T13:29:46;1.60;;;1.50;;
50104;SDS011;47690;39.202;-77.198;2023-11-19T13:32:16;1.80;;;1.70;;
50104;SDS011;47690;39.202;-77.198;2023-11-19T13:34:46;2.03;;;1.83;;
50104;SDS011;47690;39.202;-77.198;2023-11-19T13:37:16;2.45;;;1.90;;
50104;SDS011;47690;39.202;-77.198;2023-11-19T13:39:46;1.65;;;1.55;;
50104;SDS011;47690;39.202;-77.198;2023-11-19T13:42:15;2.20;;;1.80;;
50104;SDS011;47690;39.202;-77.198;2023-11-19T13:44:45;2.00;;;1.80;;
50104;SDS011;47690;39.202;-77.198;2023-11-19T13:47:14;2.20;;;1.90;;
50104;SDS011;47690;39.202;-77.198;2023-11-19T13:49:49;2.00;;;1.70;;
50104;SDS011;47690;39.202;-77.198;2023-11-19T13:52:21;2.20;;;2.00;;
50104;SDS011;47690;39.202;-77.198;2023-11-19T13:54:53;1.98;;;1.83;;
50104;SDS011;47690;39.202;-77.198;2023-11-19T13:57:23;1.80;;;1.70;;
50104;SDS011;47690;39.202;-77.198;2023-11-19T13:59:59;1.80;;;1.70;;
50104;SDS011;47690;39.202;-77.198;2023-11-19T14:02:36;2.00;;;1.80;;
50104;SDS011;47690;39.202;-77.198;2023-11-19T14:05:09;1.83;;;1.73;;
50104;SDS011;47690;39.202;-77.198;2023-11-19T14:07:41;1.92;;;1.73;;
50104;SDS011;47690;39.202;-77.198;2023-11-19T14:10:11;2.63;;;2.00;;
50104;SDS011;47690;39.202;-77.198;2023-11-19T14:12:43;2.33;;;2.13;;
50104;SDS011;47690;39.202;-77.198;2023-11-19T14:15:12;4.35;;;2.08;;
50104;SDS011;47690;39.202;-77.198;2023-11-19T14:17:45;2.20;;;1.98;;
50104;SDS011;47690;39.202;-77.198;2023-11-19T14:20:13;2.00;;;1.80;;
50104;SDS011;47690;39.202;-77.198;2023-11-19T14:22:43;1.90;;;1.80;;
50104;SDS011;47690;39.202;-77.198;2023-11-19T14:25:13;1.88;;;1.75;;
50104;SDS011;47690;39.202;-77.198;2023-11-19T14:27:45;1.95;;;1.70;;
50104;SDS011;47690;39.202;-77.198;2023-11-19T14:30:17;2.15;;;1.90;;
50104;SDS011;47690;39.202;-77.198;2023-11-19T14:33:11;1.95;;;1.75;;
50104;SDS011;47690;39.202;-77.198;2023-11-19T14:35:43;2.20;;;2.00;;
50104;SDS011;47690;39.202;-77.198;2023-11-19T14:38:12;2.13;;;1.98;;
50104;SDS011;47690;39.202;-77.198;2023-11-19T14:40:41;2.33;;;2.00;;
50104;SDS011;47690;39.202;-77.198;2023-11-19T14:43:11;2.90;;;1.80;;
50104;SDS011;47690;39.202;-77.198;2023-11-19T14:45:40;2.80;;;2.10;;
50104;SDS011;47690;39.202;-77.198;2023-11-19T14:48:16;2.22;;;1.90;;
50104;SDS011;47690;39.202;-77.198;2023-11-19T14:50:45;2.40;;;2.08;;
50104;SDS011;47690;39.202;-77.198;2023-11-19T14:53:15;2.05;;;1.85;;
50104;SDS011;47690;39.202;-77.198;2023-11-19T14:55:44;2.10;;;1.90;;
50104;SDS011;47690;39.202;-77.198;2023-11-19T14:58:18;2.30;;;2.00;;
50104;SDS011;47690;39.202;-77.198;2023-11-19T15:00:51;2.47;;;2.00;;
50104;SDS011;47690;39.202;-77.198;2023-11-19T15:03:39;2.22;;;2.03;;
50104;SDS011;47690;39.202;-77.198;2023-11-19T15:06:12;2.40;;;2.00;;
50104;SDS011;47690;39.202;-77.198;2023-11-19T15:08:41;2.10;;;1.90;;
50104;SDS011;47690;39.202;-77.198;2023-11-19T15:14:14;2.53;;;1.73;;
50104;SDS011;47690;39.202;-77.198;2023-11-19T15:16:46;2.17;;;1.98;;
50104;SDS011;47690;39.202;-77.198;2023-11-19T15:19:16;2.55;;;2.25;;
50104;SDS011;47690;39.202;-77.198;2023-11-19T15:21:45;2.78;;;2.10;;
50104;SDS011;47690;39.202;-77.198;2023-11-19T15:24:14;3.05;;;2.20;;
50104;SDS011;47690;39.202;-77.198;2023-11-19T15:26:44;2.22;;;2.03;;
50104;SDS011;47690;39.202;-77.198;2023-11-19T15:29:14;2.60;;;2.10;;